Time;durP1;ratioP1;P1;durP2;ratioP2;P2;SDS_P1;SDS_P2;PMS_P1;PMS_P2;Temp;Humidity;BMP_temperature;BMP_pressure;BME280_temperature;BME280_humidity;BME280_pressure;Samples;Min_cycle;Max_cycle;Signal;HPM_P1;HPM_P2
2023/06/14 00:00:26;;;;;;;;;;;24.20;34.20;;;;;;1545028;75;721;-64
2023/06/14 00:02:28;;;;;;;;;;;24.30;34.40;;;;;;1560815;76;1911;-63
2023/06/14 00:04:30;;;;;;;;;;;24.20;34.40;;;;;;1552918;76;776;-63
2023/06/14 00:06:33;;;;;;;;;;;24.20;34.80;;;;;;1543648;75;780;-63
2023/06/14 00:08:35;;;;;;;;;;;24.20;34.50;;;;;;1558235;76;1157;-64
2023/06/14 00:10:37;;;;;;;;;;;24.20;34.50;;;;;;1550186;75;1076;-64
2023/06/14 00:12:39;;;;;;;;;;;24.20;34.40;;;;;;1539039;75;1594;-64
2023/06/14 00:14:41;;;;;;;;;;;24.30;34.60;;;;;;1547488;74;776;-65
2023/06/14 00:16:43;;;;;;;;;;;24.20;34.60;;;;;;1552805;74;725;-63
2023/06/14 00:18:45;;;;;;;;;;;24.20;34.50;;;;;;1546372;74;1201;-63
2023/06/14 00:20:47;;;;;;;;;;;24.20;34.80;;;;;;1546233;75;749;-64
2023/06/14 00:22:50;;;;;;;;;;;24.20;34.70;;;;;;1547982;75;1912;-64
2023/06/14 00:24:55;;;;;;;;;;;24.20;35.00;;;;;;1540754;75;795;-63
2023/06/14 00:26:57;;;;;;;;;;;24.10;34.80;;;;;;1546595;75;1653;-65
2023/06/14 00:28:58;;;;;;;;;;;24.20;35.10;;;;;;1539016;75;1150;-63
2023/06/14 00:31:00;;;;;;;;;;;24.20;35.20;;;;;;1546503;74;692;-63
2023/06/14 00:33:02;;;;;;;;;;;24.20;35.20;;;;;;1552837;75;723;-64
2023/06/14 00:35:04;;;;;;;;;;;24.20;35.20;;;;;;1553111;75;740;-63
2023/06/14 00:37:06;;;;;;;;;;;24.20;35.10;;;;;;1542402;75;717;-64
2023/06/14 00:39:09;;;;;;;;;;;24.20;35.20;;;;;;1559304;74;1542;-64
2023/06/14 00:41:11;;;;;;;;;;;24.30;35.30;;;;;;1561633;75;686;-64
2023/06/14 00:43:13;;;;;;;;;;;24.20;35.20;;;;;;1540163;75;1908;-63
2023/06/14 00:45:15;;;;;;;;;;;24.20;35.10;;;;;;1571324;74;749;-64
2023/06/14 00:47:17;;;;;;;;;;;24.30;35.20;;;;;;1559544;75;722;-64
2023/06/14 00:49:18;;;;;;;;;;;24.30;35.10;;;;;;1537331;75;644;-64
2023/06/14 00:51:20;;;;;;;;;;;24.20;34.90;;;;;;1547838;75;787;-65
2023/06/14 00:53:22;;;;;;;;;;;24.20;34.80;;;;;;1560766;75;1567;-63
2023/06/14 00:55:24;;;;;;;;;;;24.20;34.90;;;;;;1560359;75;819;-63
2023/06/14 00:57:26;;;;;;;;;;;24.20;34.90;;;;;;1564269;75;1136;-64
2023/06/14 00:59:28;;;;;;;;;;;24.20;34.90;;;;;;1554323;74;795;-63
2023/06/14 01:01:35;;;;;;;;;;;24.20;34.80;;;;;;1570466;74;696;-63
2023/06/14 01:03:37;;;;;;;;;;;24.20;34.90;;;;;;1563232;75;1915;-64
2023/06/14 01:05:39;;;;;;;;;;;24.20;35.00;;;;;;1540410;75;732;-63
2023/06/14 01:07:51;;;;;;;;;;;24.20;34.90;;;;;;1549730;75;1583;-63
2023/06/14 01:10:00;;;;;;;;;;;24.20;34.90;;;;;;1551302;75;708;-63
2023/06/14 01:12:07;;;;;;;;;;;24.30;35.40;;;;;;1560890;75;1982;-66
2023/06/14 01:14:09;;;;;;;;;;;24.20;35.20;;;;;;1558518;74;794;-66
2023/06/14 01:16:11;;;;;;;;;;;24.20;35.30;;;;;;1560215;74;765;-66
2023/06/14 01:18:23;;;;;;;;;;;24.20;35.30;;;;;;1554357;75;1204;-63
2023/06/14 01:20:17;;;;;;;;;;;24.20;35.40;;;;;;1547249;75;1599;-63
2023/06/14 01:22:19;;;;;;;;;;;24.20;35.20;;;;;;1564767;75;1925;-64
2023/06/14 01:24:28;;;;;;;;;;;24.20;35.30;;;;;;1547011;75;771;-65
2023/06/14 01:26:26;;;;;;;;;;;24.20;35.20;;;;;;1557075;75;1591;-63
2023/06/14 01:28:31;;;;;;;;;;;24.20;35.20;;;;;;1563119;74;1132;-64
2023/06/14 01:30:33;;;;;;;;;;;24.20;35.30;;;;;;1555148;74;1768;-63
2023/06/14 01:32:35;;;;;;;;;;;24.20;35.40;;;;;;1547967;75;791;-64
2023/06/14 01:34:37;;;;;;;;;;;24.30;35.50;;;;;;1557752;75;662;-64
2023/06/14 01:36:39;;;;;;;;;;;24.20;35.20;;;;;;1562468;74;1583;-64
2023/06/14 01:38:40;;;;;;;;;;;24.30;35.60;;;;;;1559532;75;1128;-63
2023/06/14 01:40:43;;;;;;;;;;;24.30;35.60;;;;;;1551167;75;793;-63
2023/06/14 01:42:45;;;;;;;;;;;24.20;35.20;;;;;;1559582;75;1943;-64
2023/06/14 01:44:47;;;;;;;;;;;24.20;35.10;;;;;;1572284;74;683;-64
2023/06/14 01:46:49;;;;;;;;;;;24.30;35.20;;;;;;1551628;75;727;-64
2023/06/14 01:48:50;;;;;;;;;;;24.30;35.20;;;;;;1559918;75;1154;-65
2023/06/14 01:50:52;;;;;;;;;;;24.20;35.00;;;;;;1558648;75;1516;-64
2023/06/14 01:52:54;;;;;;;;;;;24.20;35.00;;;;;;1573900;75;743;-64
2023/06/14 01:54:57;;;;;;;;;;;24.20;34.90;;;;;;1567883;74;793;-64
2023/06/14 01:56:59;;;;;;;;;;;24.20;34.90;;;;;;1553652;75;708;-64
2023/06/14 01:59:01;;;;;;;;;;;24.20;34.90;;;;;;1567483;75;1178;-64
2023/06/14 02:01:03;;;;;;;;;;;24.20;35.00;;;;;;1553365;75;782;-64
2023/06/14 02:03:05;;;;;;;;;;;24.20;34.90;;;;;;1560736;75;1935;-63
2023/06/14 02:05:07;;;;;;;;;;;24.20;35.10;;;;;;1560363;75;1611;-64
2023/06/14 02:07:09;;;;;;;;;;;24.20;35.10;;;;;;1557999;75;737;-64
2023/06/14 02:09:11;;;;;;;;;;;24.20;35.10;;;;;;1556573;74;1038;-64
2023/06/14 02:11:13;;;;;;;;;;;24.20;35.20;;;;;;1558765;74;757;-64
2023/06/14 02:13:15;;;;;;;;;;;24.20;35.00;;;;;;1546485;75;981;-64
2023/06/14 02:15:17;;;;;;;;;;;24.20;35.20;;;;;;1557446;74;745;-64
2023/06/14 02:17:20;;;;;;;;;;;24.20;35.00;;;;;;1545110;75;1193;-64
2023/06/14 02:19:22;;;;;;;;;;;24.20;35.20;;;;;;1562505;74;1667;-64
2023/06/14 02:21:23;;;;;;;;;;;24.20;35.20;;;;;;1545656;75;686;-64
2023/06/14 02:23:25;;;;;;;;;;;24.20;35.30;;;;;;1559367;75;1931;-64
2023/06/14 02:25:27;;;;;;;;;;;24.20;35.30;;;;;;1554603;75;717;-64
2023/06/14 02:27:29;;;;;;;;;;;24.20;35.20;;;;;;1570281;74;1144;-64
2023/06/14 02:29:31;;;;;;;;;;;24.20;35.10;;;;;;1557890;75;679;-64
2023/06/14 02:31:34;;;;;;;;;;;24.20;35.20;;;;;;1565026;75;804;-64
2023/06/14 02:33:35;;;;;;;;;;;24.20;35.20;;;;;;1558201;75;1590;-64
2023/06/14 02:35:37;;;;;;;;;;;24.20;35.30;;;;;;1568749;74;789;-63
2023/06/14 02:37:39;;;;;;;;;;;24.20;35.20;;;;;;1558399;75;1128;-64
2023/06/14 02:39:41;;;;;;;;;;;24.20;35.50;;;;;;1549850;75;610;-64
2023/06/14 02:41:43;;;;;;;;;;;24.20;35.60;;;;;;1552083;75;685;-63
2023/06/14 02:43:45;;;;;;;;;;;24.20;35.50;;;;;;1565642;75;1954;-63
2023/06/14 02:45:47;;;;;;;;;;;24.10;35.40;;;;;;1555618;74;1167;-63
2023/06/14 02:47:49;;;;;;;;;;;24.20;35.40;;;;;;1553920;75;1167;-63
2023/06/14 02:49:50;;;;;;;;;;;24.10;35.70;;;;;;1558797;75;730;-64
2023/06/14 02:51:52;;;;;;;;;;;24.10;35.70;;;;;;1553740;75;660;-63
2023/06/14 02:53:54;;;;;;;;;;;24.20;35.70;;;;;;1556098;74;719;-64
2023/06/14 02:55:56;;;;;;;;;;;24.20;35.50;;;;;;1548942;75;718;-64
2023/06/14 02:57:58;;;;;;;;;;;24.20;35.60;;;;;;1550077;75;1146;-64
2023/06/14 03:00:00;;;;;;;;;;;24.20;35.50;;;;;;1544529;75;1528;-63
2023/06/14 03:02:03;;;;;;;;;;;24.10;35.60;;;;;;1547087;75;750;-64
2023/06/14 03:04:04;;;;;;;;;;;24.20;35.60;;;;;;1549897;75;1904;-65
2023/06/14 03:06:07;;;;;;;;;;;24.20;35.50;;;;;;1556875;74;751;-64
2023/06/14 03:08:09;;;;;;;;;;;24.10;35.50;;;;;;1559656;74;1147;-64
2023/06/14 03:10:12;;;;;;;;;;;24.10;35.40;;;;;;1552437;74;735;-64
2023/06/14 03:12:14;;;;;;;;;;;24.10;35.50;;;;;;1540351;75;775;-65
2023/06/14 03:14:18;;;;;;;;;;;24.00;35.40;;;;;;1562715;75;1417;-64
2023/06/14 03:16:21;;;;;;;;;;;24.10;35.70;;;;;;1553796;75;697;-64
2023/06/14 03:18:23;;;;;;;;;;;24.10;35.50;;;;;;1545127;75;1123;-64
2023/06/14 03:20:28;;;;;;;;;;;24.10;35.50;;;;;;1558751;75;770;-64
2023/06/14 03:22:29;;;;;;;;;;;24.10;35.50;;;;;;1559455;75;1415;-64
2023/06/14 03:24:36;;;;;;;;;;;24.00;35.40;;;;;;1561537;75;1936;-63
2023/06/14 03:26:34;;;;;;;;;;;24.10;35.60;;;;;;1566438;75;1393;-64
2023/06/14 03:28:36;;;;;;;;;;;24.10;35.80;;;;;;1556665;75;1574;-64
2023/06/14 03:30:38;;;;;;;;;;;24.10;35.80;;;;;;1559119;75;739;-63
2023/06/14 03:32:39;;;;;;;;;;;24.00;35.60;;;;;;1562905;75;727;-64
2023/06/14 03:34:42;;;;;;;;;;;24.00;35.80;;;;;;1550126;75;811;-64
2023/06/14 03:36:44;;;;;;;;;;;24.10;36.00;;;;;;1566644;75;777;-66
2023/06/14 03:38:46;;;;;;;;;;;24.00;35.80;;;;;;1545470;75;1111;-63
2023/06/14 03:40:48;;;;;;;;;;;24.10;36.00;;;;;;1560151;75;670;-64
2023/06/14 03:42:50;;;;;;;;;;;24.10;36.00;;;;;;1558279;75;1535;-66
2023/06/14 03:44:51;;;;;;;;;;;24.10;35.80;;;;;;1541196;75;1935;-65
2023/06/14 03:46:53;;;;;;;;;;;24.00;35.50;;;;;;1565195;75;802;-65
2023/06/14 03:48:55;;;;;;;;;;;24.10;35.70;;;;;;1557665;74;1106;-64
2023/06/14 03:50:58;;;;;;;;;;;24.00;35.50;;;;;;1546538;75;730;-64
2023/06/14 03:53:01;;;;;;;;;;;24.10;35.70;;;;;;1553809;75;780;-64
2023/06/14 03:55:03;;;;;;;;;;;24.00;35.50;;;;;;1562515;75;738;-63
2023/06/14 03:57:05;;;;;;;;;;;24.00;35.80;;;;;;1553473;75;1604;-65
2023/06/14 03:59:07;;;;;;;;;;;24.10;36.00;;;;;;1555714;75;1063;-64
2023/06/14 04:01:11;;;;;;;;;;;24.10;36.00;;;;;;1556673;75;772;-63
2023/06/14 04:03:16;;;;;;;;;;;24.00;35.90;;;;;;1565074;74;1922;-63
2023/06/14 04:05:18;;;;;;;;;;;24.00;35.90;;;;;;1556760;75;902;-64
2023/06/14 04:07:20;;;;;;;;;;;24.00;36.30;;;;;;1550261;75;1140;-63
2023/06/14 04:09:24;;;;;;;;;;;24.00;36.30;;;;;;1563247;75;709;-64
2023/06/14 04:11:26;;;;;;;;;;;24.00;36.30;;;;;;1544442;75;1480;-63
2023/06/14 04:13:28;;;;;;;;;;;24.10;36.40;;;;;;1560010;75;1067;-63
2023/06/14 04:15:30;;;;;;;;;;;24.10;36.40;;;;;;1549793;75;678;-63
2023/06/14 04:17:32;;;;;;;;;;;24.10;35.90;;;;;;1554534;74;1128;-63
2023/06/14 04:19:34;;;;;;;;;;;24.00;35.70;;;;;;1556489;74;718;-63
2023/06/14 04:21:36;;;;;;;;;;;24.10;35.90;;;;;;1559657;75;896;-63
2023/06/14 04:23:38;;;;;;;;;;;24.00;36.10;;;;;;1546947;75;1936;-63
2023/06/14 04:25:40;;;;;;;;;;;24.10;36.10;;;;;;1558099;75;1562;-63
2023/06/14 04:27:42;;;;;;;;;;;24.10;36.00;;;;;;1537833;75;1093;-62
2023/06/14 04:29:44;;;;;;;;;;;24.00;36.00;;;;;;1541411;75;700;-62
2023/06/14 04:31:46;;;;;;;;;;;24.00;36.00;;;;;;1571758;74;766;-63
2023/06/14 04:33:50;;;;;;;;;;;24.20;36.00;;;;;;1553873;75;687;-63
2023/06/14 04:35:53;;;;;;;;;;;24.10;36.00;;;;;;1558483;75;1863;-63
2023/06/14 04:37:55;;;;;;;;;;;24.10;36.00;;;;;;1551560;75;1181;-62
2023/06/14 04:39:57;;;;;;;;;;;24.00;35.90;;;;;;1555208;75;1492;-62
2023/06/14 04:42:00;;;;;;;;;;;24.10;36.60;;;;;;1562191;75;723;-63
2023/06/14 04:44:03;;;;;;;;;;;24.00;36.30;;;;;;1554984;75;1914;-66
2023/06/14 04:46:10;;;;;;;;;;;24.10;36.20;;;;;;1540284;75;739;-66
2023/06/14 04:48:10;;;;;;;;;;;24.10;36.00;;;;;;1553591;75;1590;-66
2023/06/14 04:50:13;;;;;;;;;;;24.10;36.20;;;;;;1561502;75;715;-65
2023/06/14 04:52:15;;;;;;;;;;;24.00;36.10;;;;;;1556683;75;728;-66
2023/06/14 04:54:18;;;;;;;;;;;24.00;36.20;;;;;;1553242;75;699;-73
2023/06/14 04:56:20;;;;;;;;;;;24.00;36.30;;;;;;1547890;75;755;-66
2023/06/14 04:58:22;;;;;;;;;;;24.00;35.70;;;;;;1552060;74;1162;-66
2023/06/14 05:00:24;;;;;;;;;;;24.00;35.50;;;;;;1565062;75;787;-68
2023/06/14 05:02:26;;;;;;;;;;;24.00;35.50;;;;;;1556727;75;737;-71
2023/06/14 05:04:28;;;;;;;;;;;24.00;35.60;;;;;;1553362;75;1928;-69
2023/06/14 05:06:30;;;;;;;;;;;24.00;35.80;;;;;;1553894;75;1526;-64
2023/06/14 05:08:32;;;;;;;;;;;23.90;35.70;;;;;;1550318;75;1126;-71
2023/06/14 05:10:35;;;;;;;;;;;23.90;36.30;;;;;;1549524;75;668;-66
2023/06/14 05:12:38;;;;;;;;;;;23.90;36.20;;;;;;1553174;75;773;-67
2023/06/14 05:14:40;;;;;;;;;;;24.00;36.00;;;;;;1557814;75;1108;-67
2023/06/14 05:16:42;;;;;;;;;;;24.00;35.90;;;;;;1541468;75;691;-69
2023/06/14 05:18:45;;;;;;;;;;;24.00;35.70;;;;;;1555887;74;1173;-66
2023/06/14 05:20:47;;;;;;;;;;;24.00;35.80;;;;;;1558128;75;1494;-70
2023/06/14 05:22:51;;;;;;;;;;;24.00;35.80;;;;;;1552358;75;797;-71
2023/06/14 05:24:53;;;;;;;;;;;24.00;35.70;;;;;;1555977;75;1931;-68
2023/06/14 05:26:54;;;;;;;;;;;24.10;35.80;;;;;;1552163;75;758;-66
2023/06/14 05:28:56;;;;;;;;;;;24.00;35.60;;;;;;1544081;75;1135;-67
2023/06/14 05:30:58;;;;;;;;;;;24.00;35.60;;;;;;1555433;75;760;-66
2023/06/14 05:33:00;;;;;;;;;;;24.00;35.60;;;;;;1557426;75;725;-68
2023/06/14 05:35:02;;;;;;;;;;;24.00;35.50;;;;;;1550199;75;1562;-70
2023/06/14 05:37:04;;;;;;;;;;;24.00;35.50;;;;;;1550130;74;753;-66
2023/06/14 05:39:06;;;;;;;;;;;24.00;35.50;;;;;;1547917;75;1087;-68
2023/06/14 05:41:08;;;;;;;;;;;24.10;35.20;;;;;;1551940;74;761;-68
2023/06/14 05:43:10;;;;;;;;;;;24.20;34.50;;;;;;1547886;75;800;-66
2023/06/14 05:45:12;;;;;;;;;;;24.20;34.30;;;;;;1552884;75;1960;-68
2023/06/14 05:47:14;;;;;;;;;;;24.20;34.00;;;;;;1559995;75;717;-66
2023/06/14 05:49:16;;;;;;;;;;;24.30;33.70;;;;;;1570427;75;1560;-65
2023/06/14 05:51:21;;;;;;;;;;;24.30;33.70;;;;;;1564683;75;799;-66
2023/06/14 05:53:22;;;;;;;;;;;24.30;33.40;;;;;;1553220;75;746;-66
2023/06/14 05:55:25;;;;;;;;;;;24.30;32.80;;;;;;1553485;74;790;-66
2023/06/14 05:57:26;;;;;;;;;;;24.30;32.80;;;;;;1565594;75;1183;-66
2023/06/14 05:59:29;;;;;;;;;;;24.20;31.70;;;;;;1550210;75;656;-67
2023/06/14 06:01:33;;;;;;;;;;;24.00;32.20;;;;;;1562556;75;817;-66
2023/06/14 06:03:35;;;;;;;;;;;24.00;32.60;;;;;;1551565;75;1851;-67
2023/06/14 06:05:36;;;;;;;;;;;24.10;32.40;;;;;;1555862;75;1932;-70
2023/06/14 06:07:40;;;;;;;;;;;24.10;32.20;;;;;;1546231;75;1075;-66
2023/06/14 06:09:41;;;;;;;;;;;24.20;32.50;;;;;;1553380;75;720;-65
2023/06/14 06:11:43;;;;;;;;;;;24.20;31.10;;;;;;1569892;75;736;-67
2023/06/14 06:13:45;;;;;;;;;;;24.20;31.30;;;;;;1545348;75;673;-70
2023/06/14 06:15:47;;;;;;;;;;;24.20;31.30;;;;;;1549441;75;1241;-70
2023/06/14 06:17:50;;;;;;;;;;;24.20;31.20;;;;;;1547454;75;1564;-66
2023/06/14 06:19:52;;;;;;;;;;;24.10;31.00;;;;;;1560870;74;834;-66
2023/06/14 06:21:54;;;;;;;;;;;24.10;31.30;;;;;;1551036;75;675;-67
2023/06/14 06:23:56;;;;;;;;;;;24.20;31.50;;;;;;1563136;74;1904;-71
2023/06/14 06:25:58;;;;;;;;;;;24.30;30.90;;;;;;1548255;75;802;-66
2023/06/14 06:28:00;;;;;;;;;;;24.40;30.40;;;;;;1565562;75;1118;-66
2023/06/14 06:30:03;;;;;;;;;;;24.40;30.40;;;;;;1541992;75;713;-65
2023/06/14 06:32:05;;;;;;;;;;;24.40;30.70;;;;;;1555510;74;1502;-69
2023/06/14 06:34:07;;;;;;;;;;;24.60;30.80;;;;;;1562743;75;790;-70
2023/06/14 06:36:09;;;;;;;;;;;24.60;29.40;;;;;;1557502;75;743;-70
2023/06/14 06:38:10;;;;;;;;;;;24.50;29.40;;;;;;1552322;74;1063;-67
2023/06/14 06:40:13;;;;;;;;;;;24.50;29.80;;;;;;1560430;75;676;-67
2023/06/14 06:42:15;;;;;;;;;;;24.50;29.40;;;;;;1554287;75;770;-67
2023/06/14 06:44:16;;;;;;;;;;;24.40;28.50;;;;;;1556221;76;1940;-66
2023/06/14 06:46:19;;;;;;;;;;;24.40;29.20;;;;;;1555115;75;1322;-66
2023/06/14 06:48:21;;;;;;;;;;;24.40;29.00;;;;;;1567024;75;1120;-67
2023/06/14 06:50:25;;;;;;;;;;;24.20;28.60;;;;;;1554485;75;682;-67
2023/06/14 06:52:27;;;;;;;;;;;24.20;29.30;;;;;;1553596;75;749;-67
2023/06/14 06:54:29;;;;;;;;;;;24.20;29.30;;;;;;1554821;75;785;-67
2023/06/14 06:56:31;;;;;;;;;;;24.30;29.10;;;;;;1556777;75;777;-69
2023/06/14 06:58:33;;;;;;;;;;;24.30;29.20;;;;;;1551125;75;1162;-68
2023/06/14 07:00:35;;;;;;;;;;;24.50;29.50;;;;;;1562511;75;1586;-71
2023/06/14 07:02:37;;;;;;;;;;;24.60;29.10;;;;;;1556588;75;811;-67
2023/06/14 07:04:39;;;;;;;;;;;24.50;28.50;;;;;;1576181;75;1937;-67
2023/06/14 07:06:40;;;;;;;;;;;24.50;28.40;;;;;;1550941;75;687;-66
2023/06/14 07:08:42;;;;;;;;;;;24.50;28.50;;;;;;1546093;75;1106;-75
2023/06/14 07:10:45;;;;;;;;;;;24.50;29.00;;;;;;1548529;75;783;-67
2023/06/14 07:12:46;;;;;;;;;;;24.50;29.20;;;;;;1541363;75;1046;-67
2023/06/14 07:14:48;;;;;;;;;;;24.60;28.50;;;;;;1563137;74;1426;-69
2023/06/14 07:16:50;;;;;;;;;;;24.40;28.90;;;;;;1559282;75;589;-69
2023/06/14 07:18:52;;;;;;;;;;;24.40;29.30;;;;;;1549160;74;1182;-68
2023/06/14 07:20:55;;;;;;;;;;;24.50;29.00;;;;;;1554219;74;765;-70
2023/06/14 07:22:57;;;;;;;;;;;24.60;29.00;;;;;;1546878;75;763;-66
2023/06/14 07:24:59;;;;;;;;;;;24.60;29.00;;;;;;1542367;75;1932;-69
2023/06/14 07:27:02;;;;;;;;;;;24.70;29.30;;;;;;1541243;75;1526;-67
2023/06/14 07:29:04;;;;;;;;;;;24.60;28.90;;;;;;1546716;75;1061;-66
2023/06/14 07:31:06;;;;;;;;;;;24.70;29.20;;;;;;1546046;74;813;-67
2023/06/14 07:33:08;;;;;;;;;;;24.70;28.70;;;;;;1553243;75;764;-67
2023/06/14 07:35:10;;;;;;;;;;;24.70;28.50;;;;;;1553315;75;681;-67
2023/06/14 07:37:12;;;;;;;;;;;24.80;28.10;;;;;;1545061;74;807;-69
2023/06/14 07:39:14;;;;;;;;;;;24.80;28.20;;;;;;1548201;75;1101;-68
2023/06/14 07:41:16;;;;;;;;;;;24.80;28.10;;;;;;1555411;75;1547;-66
2023/06/14 07:43:18;;;;;;;;;;;24.90;27.80;;;;;;1558204;75;796;-71
2023/06/14 07:45:20;;;;;;;;;;;24.80;28.00;;;;;;1567238;75;1940;-67
2023/06/14 07:47:22;;;;;;;;;;;24.90;28.60;;;;;;1557308;75;1120;-66
2023/06/14 07:49:24;;;;;;;;;;;24.90;28.20;;;;;;1558532;75;781;-66
2023/06/14 07:51:26;;;;;;;;;;;24.90;28.10;;;;;;1567661;75;749;-69
2023/06/14 07:53:27;;;;;;;;;;;25.00;27.80;;;;;;1551806;75;949;-67
2023/06/14 07:55:32;;;;;;;;;;;25.00;28.40;;;;;;1554479;75;1329;-70
2023/06/14 07:57:33;;;;;;;;;;;25.00;28.40;;;;;;1547932;75;1739;-66
2023/06/14 07:59:35;;;;;;;;;;;25.00;28.90;;;;;;1555722;75;803;-67
2023/06/14 08:01:37;;;;;;;;;;;25.00;28.00;;;;;;1557622;75;718;-66
2023/06/14 08:03:39;;;;;;;;;;;25.00;28.40;;;;;;1575170;75;746;-66
2023/06/14 08:05:41;;;;;;;;;;;24.90;27.70;;;;;;1554497;75;1931;-66
2023/06/14 08:07:43;;;;;;;;;;;25.00;27.50;;;;;;1551931;74;1124;-66
2023/06/14 08:09:45;;;;;;;;;;;25.00;27.70;;;;;;1544224;75;1583;-67
2023/06/14 08:11:46;;;;;;;;;;;25.00;28.30;;;;;;1547351;75;665;-69
2023/06/14 08:13:48;;;;;;;;;;;25.10;28.50;;;;;;1538590;75;755;-66
2023/06/14 08:15:50;;;;;;;;;;;25.10;28.00;;;;;;1558960;75;1325;-69
2023/06/14 08:17:52;;;;;;;;;;;25.10;27.60;;;;;;1553125;74;1132;-69
2023/06/14 08:19:59;;;;;;;;;;;25.10;27.50;;;;;;1546981;75;981;-66
2023/06/14 08:21:58;;;;;;;;;;;25.10;27.70;;;;;;1547603;75;1497;-69
2023/06/14 08:24:00;;;;;;;;;;;25.10;27.80;;;;;;1547794;75;1534;-68
2023/06/14 08:26:03;;;;;;;;;;;25.10;26.90;;;;;;1550384;75;1912;-68
2023/06/14 08:28:06;;;;;;;;;;;25.00;27.70;;;;;;1543640;75;1087;-67
2023/06/14 08:30:08;;;;;;;;;;;25.00;27.40;;;;;;1557249;75;728;-70
2023/06/14 08:32:10;;;;;;;;;;;25.00;27.70;;;;;;1559277;75;808;-69
2023/06/14 08:34:12;;;;;;;;;;;25.00;27.70;;;;;;1566212;75;788;-66
2023/06/14 08:36:14;;;;;;;;;;;25.00;27.90;;;;;;1545995;74;779;-67
2023/06/14 08:38:16;;;;;;;;;;;25.10;27.80;;;;;;1548426;74;1347;-70
2023/06/14 08:40:19;;;;;;;;;;;25.10;28.10;;;;;;1568854;75;678;-68
2023/06/14 08:42:21;;;;;;;;;;;25.10;27.00;;;;;;1565389;75;691;-69
2023/06/14 08:44:23;;;;;;;;;;;25.00;27.00;;;;;;1569256;74;944;-69
2023/06/14 08:46:27;;;;;;;;;;;25.00;26.70;;;;;;1551478;74;1936;-69
2023/06/14 08:48:29;;;;;;;;;;;25.00;27.10;;;;;;1549893;75;1083;-66
2023/06/14 08:50:31;;;;;;;;;;;25.00;27.30;;;;;;1565401;74;745;-67
2023/06/14 08:52:33;;;;;;;;;;;25.00;26.40;;;;;;1548154;75;1561;-68
2023/06/14 08:54:43;;;;;;;;;;;25.00;26.70;;;;;;1563155;75;769;-67
2023/06/14 08:56:41;;;;;;;;;;;25.00;26.30;;;;;;1566980;75;1618;-67
2023/06/14 08:58:44;;;;;;;;;;;24.90;26.80;;;;;;1545961;75;1691;-68
2023/06/14 09:00:46;;;;;;;;;;;25.00;26.30;;;;;;1551967;75;796;-69
2023/06/14 09:02:48;;;;;;;;;;;24.90;27.10;;;;;;1538762;75;715;-71
2023/06/14 09:04:50;;;;;;;;;;;25.00;26.00;;;;;;1561366;75;1916;-68
2023/06/14 09:06:52;;;;;;;;;;;24.90;26.10;;;;;;1559771;75;1577;-68
2023/06/14 09:08:57;;;;;;;;;;;24.90;25.70;;;;;;1574776;75;1137;-67
2023/06/14 09:10:58;;;;;;;;;;;24.80;26.60;;;;;;1540426;75;701;-66
2023/06/14 09:13:02;;;;;;;;;;;24.90;26.80;;;;;;1547456;74;748;-67
2023/06/14 09:15:05;;;;;;;;;;;24.90;26.50;;;;;;1567546;75;1647;-67
2023/06/14 09:17:07;;;;;;;;;;;25.00;26.70;;;;;;1544734;75;1073;-70
2023/06/14 09:19:09;;;;;;;;;;;25.00;26.60;;;;;;1576073;74;1109;-67
2023/06/14 09:21:12;;;;;;;;;;;25.00;26.80;;;;;;1530692;76;1672;-67
2023/06/14 09:23:14;;;;;;;;;;;25.00;26.60;;;;;;1562355;75;764;-70
2023/06/14 09:25:16;;;;;;;;;;;24.90;26.50;;;;;;1562062;75;1942;-67
2023/06/14 09:27:18;;;;;;;;;;;24.90;26.70;;;;;;1556496;75;730;-67
2023/06/14 09:29:20;;;;;;;;;;;24.80;26.80;;;;;;1551288;75;1137;-68
2023/06/14 09:31:22;;;;;;;;;;;24.90;27.30;;;;;;1560846;74;729;-67
2023/06/14 09:33:24;;;;;;;;;;;24.90;25.50;;;;;;1562854;75;745;-67
2023/06/14 09:35:25;;;;;;;;;;;24.80;26.80;;;;;;1556529;75;1702;-69
2023/06/14 09:37:29;;;;;;;;;;;24.90;27.30;;;;;;1544966;74;1103;-69
2023/06/14 09:39:31;;;;;;;;;;;24.80;25.90;;;;;;1556974;75;1075;-67
2023/06/14 09:41:33;;;;;;;;;;;24.70;25.50;;;;;;1558534;75;741;-67
2023/06/14 09:43:35;;;;;;;;;;;24.60;25.60;;;;;;1552439;75;729;-67
2023/06/14 09:45:39;;;;;;;;;;;24.60;25.40;;;;;;1550468;75;1941;-67
2023/06/14 09:47:41;;;;;;;;;;;24.60;25.30;;;;;;1557618;75;1633;-67
2023/06/14 09:49:43;;;;;;;;;;;24.70;26.30;;;;;;1550231;75;884;-67
2023/06/14 09:51:45;;;;;;;;;;;24.80;25.80;;;;;;1553403;75;838;-67
2023/06/14 09:53:47;;;;;;;;;;;24.70;26.30;;;;;;1545856;75;673;-66
2023/06/14 09:55:50;;;;;;;;;;;24.70;25.50;;;;;;1562264;75;768;-67
2023/06/14 09:57:52;;;;;;;;;;;24.60;25.30;;;;;;1552326;75;1113;-67
2023/06/14 09:59:54;;;;;;;;;;;24.60;25.60;;;;;;1540471;75;784;-67
2023/06/14 10:01:56;;;;;;;;;;;24.60;25.80;;;;;;1555605;75;1420;-67
2023/06/14 10:04:05;;;;;;;;;;;24.60;24.40;;;;;;1565575;75;727;-67
2023/06/14 10:06:07;;;;;;;;;;;24.60;25.50;;;;;;1560715;75;1925;-68
2023/06/14 10:08:09;;;;;;;;;;;24.70;26.80;;;;;;1556987;75;1168;-69
2023/06/14 10:10:11;;;;;;;;;;;24.70;25.60;;;;;;1561269;75;770;-66
2023/06/14 10:12:18;;;;;;;;;;;24.60;25.00;;;;;;1565142;75;766;-67
2023/06/14 10:14:18;;;;;;;;;;;24.60;25.40;;;;;;1556381;74;1553;-67
2023/06/14 10:16:27;;;;;;;;;;;24.70;26.40;;;;;;1543397;74;1525;-67
2023/06/14 10:18:31;;;;;;;;;;;24.60;24.80;;;;;;1571944;74;1216;-68
2023/06/14 10:20:37;;;;;;;;;;;24.50;24.70;;;;;;1566219;75;693;-69
2023/06/14 10:22:41;;;;;;;;;;;24.50;25.50;;;;;;1560183;74;691;-67
2023/06/14 10:24:43;;;;;;;;;;;24.60;26.30;;;;;;1549829;75;1764;-69
2023/06/14 10:26:51;;;;;;;;;;;24.50;26.20;;;;;;1555780;75;1908;-67
2023/06/14 10:29:01;;;;;;;;;;;24.60;26.80;;;;;;1539087;75;1221;-68
2023/06/14 10:31:04;;;;;;;;;;;24.60;25.90;;;;;;1561505;74;1920;-69
2023/06/14 10:33:07;;;;;;;;;;;24.70;25.20;;;;;;1562702;75;1784;-66
2023/06/14 10:35:09;;;;;;;;;;;24.60;25.00;;;;;;1552401;75;730;-70
2023/06/14 10:37:14;;;;;;;;;;;24.50;25.00;;;;;;1570288;74;773;-68
2023/06/14 10:39:17;;;;;;;;;;;24.60;25.70;;;;;;1543641;75;1594;-68
2023/06/14 10:41:18;;;;;;;;;;;24.50;24.40;;;;;;1529361;76;794;-67
2023/06/14 10:43:23;;;;;;;;;;;24.60;25.90;;;;;;1498029;77;705;-68
2023/06/14 10:45:25;;;;;;;;;;;24.60;26.50;;;;;;1501410;78;1929;-67
2023/06/14 10:47:30;;;;;;;;;;;24.60;25.80;;;;;;1489204;78;1087;-67
2023/06/14 10:49:45;;;;;;;;;;;24.60;25.70;;;;;;1503395;79;802;-69
2023/06/14 10:51:51;;;;;;;;;;;24.60;24.60;;;;;;1493201;79;748;-67
2023/06/14 10:53:53;;;;;;;;;;;24.50;25.30;;;;;;1503326;78;739;-67
2023/06/14 10:55:57;;;;;;;;;;;24.50;25.80;;;;;;1479490;79;1065;-69
2023/06/14 10:57:59;;;;;;;;;;;24.50;26.00;;;;;;1538362;75;1582;-70
2023/06/14 11:00:11;;;;;;;;;;;24.60;26.00;;;;;;1543145;75;835;-67
2023/06/14 11:02:21;;;;;;;;;;;24.50;24.90;;;;;;1532535;75;1463;-67
2023/06/14 11:04:24;;;;;;;;;;;24.40;24.80;;;;;;1548129;75;709;-73
2023/06/14 11:06:28;;;;;;;;;;;24.40;25.00;;;;;;1535351;75;1925;-70
2023/06/14 11:08:40;;;;;;;;;;;24.30;25.70;;;;;;1552208;75;1755;-67
2023/06/14 11:10:42;;;;;;;;;;;24.40;25.30;;;;;;1543201;75;1671;-69
2023/06/14 11:12:46;;;;;;;;;;;24.40;26.00;;;;;;1531676;76;1571;-68
2023/06/14 11:14:48;;;;;;;;;;;24.40;25.60;;;;;;1552991;75;716;-67
2023/06/14 11:16:50;;;;;;;;;;;24.40;25.10;;;;;;1547035;75;1086;-67
2023/06/14 11:18:52;;;;;;;;;;;24.40;25.00;;;;;;1546898;75;1197;-69
2023/06/14 11:20:54;;;;;;;;;;;24.40;25.20;;;;;;1545914;75;703;-64
2023/06/14 11:22:56;;;;;;;;;;;24.40;25.00;;;;;;1545888;75;760;-62
2023/06/14 11:25:02;;;;;;;;;;;24.40;25.00;;;;;;1528445;75;740;-64
2023/06/14 11:27:01;;;;;;;;;;;24.30;24.60;;;;;;1537073;75;1931;-67
2023/06/14 11:29:03;;;;;;;;;;;24.30;25.80;;;;;;1527844;75;1111;-67
2023/06/14 11:31:05;;;;;;;;;;;24.30;25.20;;;;;;1531606;75;745;-67
2023/06/14 11:33:09;;;;;;;;;;;24.30;25.00;;;;;;1547862;75;753;-64
2023/06/14 11:35:11;;;;;;;;;;;24.40;26.00;;;;;;1547477;75;722;-66
2023/06/14 11:37:13;;;;;;;;;;;24.30;25.80;;;;;;1543730;75;733;-66
2023/06/14 11:39:15;;;;;;;;;;;24.30;25.00;;;;;;1539142;75;1103;-66
2023/06/14 11:41:17;;;;;;;;;;;24.20;25.10;;;;;;1536127;75;1546;-67
2023/06/14 11:43:20;;;;;;;;;;;24.20;25.70;;;;;;1549965;75;790;-67
2023/06/14 11:45:21;;;;;;;;;;;24.40;25.90;;;;;;1554849;75;719;-68
2023/06/14 11:47:23;;;;;;;;;;;24.30;25.70;;;;;;1543611;75;1940;-68
2023/06/14 11:49:27;;;;;;;;;;;24.20;26.20;;;;;;1538606;75;701;-67
2023/06/14 11:51:31;;;;;;;;;;;24.20;25.30;;;;;;1539268;75;734;-67
2023/06/14 11:53:33;;;;;;;;;;;24.20;26.00;;;;;;1556479;75;1601;-67
2023/06/14 11:55:40;;;;;;;;;;;24.20;25.70;;;;;;1543588;75;1531;-67
2023/06/14 11:57:42;;;;;;;;;;;24.20;25.60;;;;;;1558752;75;1156;-67
2023/06/14 11:59:45;;;;;;;;;;;24.10;25.70;;;;;;1537805;75;712;-67
2023/06/14 12:01:48;;;;;;;;;;;24.10;26.00;;;;;;1550643;75;825;-66
2023/06/14 12:03:50;;;;;;;;;;;24.20;26.30;;;;;;1544255;75;780;-66
2023/06/14 12:05:54;;;;;;;;;;;24.20;26.30;;;;;;1553569;75;1925;-67
2023/06/14 12:08:01;;;;;;;;;;;24.30;25.60;;;;;;1547519;75;1892;-67